Terminal Aerodrome Forecast
Issued by NWS

Home | Current Version | Previous Version | Text Only | Print | Product List | Glossary On
Versions: 1 2 3 4 5 6 7 8 9 10 11 12 13 14 15 16 17 18 19 20 21 22 23 24 25 26 27 28 29 30 31 32
000
FTUS43 KGLD 241720
TAFMCK
TAF
KMCK 241720Z 2418/2518 31016G24KT P6SM FEW060 SCT200
     FM250100 28011KT P6SM FEW300
     FM250300 23006KT P6SM FEW120 SCT250
     FM250900 28008KT P6SM BKN100
     FM251300 33013G19KT P6SM BKN080
     FM251600 35018G28KT P6SM FEW025 SCT060 BKN100=

USA.gov is the U.S. government's official web portal to all federal, state and local government web resources and services.